createdAt,value
2019-05-17T00:02:46.427Z,33.20
2019-05-17T00:05:39.331Z,33.20
2019-05-17T00:08:35.577Z,33.20
2019-05-17T00:11:29.342Z,33.20
2019-05-17T00:14:24.042Z,33.20
2019-05-17T00:17:18.698Z,33.10
2019-05-17T00:20:13.405Z,33.10
2019-05-17T00:23:08.248Z,33.10
2019-05-17T00:26:03.679Z,33.10
2019-05-17T00:28:59.591Z,33.10
2019-05-17T00:31:56.731Z,33.10
2019-05-17T00:34:51.107Z,33.10
2019-05-17T00:37:46.896Z,33.10
2019-05-17T00:40:41.821Z,33.10
2019-05-17T00:43:37.018Z,33.10
2019-05-17T00:46:33.592Z,33.10
2019-05-17T00:49:28.695Z,33.10
2019-05-17T00:52:24.375Z,33.10
2019-05-17T00:55:20.103Z,33.10
2019-05-17T00:58:17.276Z,33.00
2019-05-17T01:01:10.975Z,33.00
2019-05-17T01:04:06.888Z,33.00
2019-05-17T01:07:00.924Z,33.00
2019-05-17T01:09:56.767Z,33.00
2019-05-17T01:12:52.878Z,32.90
2019-05-17T01:15:50.189Z,32.90
2019-05-17T01:18:46.874Z,32.90
2019-05-17T01:21:40.414Z,32.90
2019-05-17T01:24:36.878Z,32.90
2019-05-17T01:27:30.345Z,32.90
2019-05-17T01:30:26.656Z,32.90
2019-05-17T01:33:23.780Z,32.90
2019-05-17T01:36:18.922Z,32.90
2019-05-17T01:39:17.845Z,33.00
2019-05-17T01:42:09.113Z,33.00
2019-05-17T01:45:03.922Z,33.10
2019-05-17T01:47:58.720Z,33.10
2019-05-17T01:50:53.026Z,33.10
2019-05-17T01:53:48.111Z,33.20
2019-05-17T01:56:42.728Z,33.30
2019-05-17T01:59:38.138Z,33.30
2019-05-17T02:02:36.889Z,33.30
2019-05-17T02:05:33.675Z,33.40
2019-05-17T02:08:29.091Z,33.40
2019-05-17T02:11:26.754Z,33.50
2019-05-17T02:14:19.682Z,33.50
2019-05-17T02:17:14.629Z,33.60
2019-05-17T02:20:10.714Z,33.70
2019-05-17T02:23:07.499Z,33.70
2019-05-17T02:26:02.142Z,33.70
2019-05-17T02:28:56.808Z,33.80
2019-05-17T02:31:52.700Z,33.90
2019-05-17T02:34:48.594Z,33.90
2019-05-17T02:37:43.771Z,34.00
2019-05-17T02:40:42.816Z,34.10
2019-05-17T02:43:36.733Z,34.10
2019-05-17T02:46:33.850Z,34.20
2019-05-17T02:49:28.229Z,34.20
2019-05-17T02:52:23.533Z,34.30
2019-05-17T02:55:18.894Z,34.30
2019-05-17T02:58:14.193Z,34.40
2019-05-17T03:01:12.427Z,34.50
2019-05-17T03:04:05.161Z,34.60
2019-05-17T03:06:59.739Z,34.60
2019-05-17T03:10:11.657Z,34.70
2019-05-17T03:12:53.001Z,34.80
2019-05-17T03:15:46.483Z,34.80
2019-05-17T03:18:43.829Z,34.90
2019-05-17T03:21:42.767Z,35.00
2019-05-17T03:24:36.907Z,35.10
2019-05-17T03:27:33.864Z,35.10
2019-05-17T03:30:35.573Z,35.20
2019-05-17T03:33:27.157Z,35.30
2019-05-17T03:36:25.987Z,35.40
2019-05-17T03:39:18.486Z,35.40
2019-05-17T03:42:13.702Z,35.50
2019-05-17T03:45:13.662Z,35.50
2019-05-17T03:48:07.089Z,35.60
2019-05-17T03:51:02.688Z,35.60
2019-05-17T03:53:57.371Z,35.70
2019-05-17T03:56:54.703Z,35.80
2019-05-17T03:59:52.277Z,35.80
2019-05-17T04:02:45.107Z,35.90
2019-05-17T04:05:42.624Z,35.90
2019-05-17T04:08:36.913Z,36.00
2019-05-17T04:11:36.054Z,36.00
2019-05-17T04:14:26.762Z,36.10
2019-05-17T04:17:22.776Z,36.20
2019-05-17T04:20:18.072Z,36.20
2019-05-17T04:23:13.861Z,36.30
2019-05-17T04:26:09.136Z,36.30
2019-05-17T04:29:05.272Z,36.40
2019-05-17T04:32:04.024Z,36.50
2019-05-17T04:34:57.597Z,36.50
2019-05-17T04:37:53.040Z,36.60
2019-05-17T04:40:47.804Z,36.60
2019-05-17T04:43:44.351Z,36.70
2019-05-17T04:46:42.912Z,36.80
2019-05-17T04:49:48.869Z,36.90
2019-05-17T04:52:45.971Z,36.90
2019-05-17T04:55:43.821Z,37.00
2019-05-17T04:58:42.656Z,37.10
2019-05-17T05:01:35.533Z,37.10
2019-05-17T05:04:33.131Z,37.20
2019-05-17T05:07:29.759Z,37.30
2019-05-17T05:10:27.616Z,37.40
2019-05-17T05:13:29.290Z,37.40
2019-05-17T05:16:35.581Z,37.40
2019-05-17T05:19:57.261Z,37.50
2019-05-17T05:23:15.481Z,37.60
2019-05-17T05:26:22.245Z,37.60
2019-05-17T05:29:32.147Z,37.70
2019-05-17T05:32:37.519Z,37.80
2019-05-17T05:35:47.734Z,37.80
2019-05-17T05:40:27.250Z,37.90
2019-05-17T05:47:07.986Z,38.00
2019-05-17T05:50:12.431Z,38.10
2019-05-17T05:53:17.419Z,38.10
2019-05-17T05:56:17.216Z,38.10
2019-05-17T05:59:18.578Z,38.20
2019-05-17T06:03:13.926Z,38.20
2019-05-17T06:06:12.356Z,38.30
2019-05-17T06:09:08.727Z,38.40
2019-05-17T06:12:04.803Z,38.40
2019-05-17T06:15:09.804Z,38.50
2019-05-17T06:18:03.003Z,38.60
2019-05-17T06:20:58.905Z,38.70
2019-05-17T06:23:55.590Z,38.70
2019-05-17T06:26:52.504Z,38.70
2019-05-17T06:29:51.459Z,38.80
2019-05-17T06:33:05.692Z,38.90
2019-05-17T06:36:03.077Z,39.00
2019-05-17T06:38:58.976Z,39.00
2019-05-17T06:41:57.470Z,39.10
2019-05-17T06:44:53.638Z,39.10
2019-05-17T06:47:53.291Z,39.20
2019-05-17T06:50:51.804Z,39.20
2019-05-17T06:53:46.369Z,39.30
2019-05-17T06:56:42.353Z,39.30
2019-05-17T06:59:40.218Z,39.40
2019-05-17T07:02:40.183Z,39.40
2019-05-17T07:05:45.080Z,39.50
2019-05-17T07:08:41.860Z,39.50
2019-05-17T07:11:46.570Z,39.60
2019-05-17T07:14:58.382Z,39.60
2019-05-17T07:18:20.358Z,39.70
2019-05-17T07:21:21.044Z,39.70
2019-05-17T07:24:26.268Z,39.70
2019-05-17T07:27:54.267Z,39.80
2019-05-17T07:31:19.381Z,39.80
2019-05-17T07:34:51.914Z,39.90
2019-05-17T07:38:02.314Z,39.90
2019-05-17T07:41:03.985Z,40.00
2019-05-17T07:44:09.777Z,40.00
2019-05-17T07:47:06.720Z,40.10
2019-05-17T07:50:10.825Z,40.20
2019-05-17T07:53:21.178Z,40.20
2019-05-17T07:56:32.091Z,40.30
2019-05-17T07:59:42.696Z,40.30
2019-05-17T08:02:40.456Z,40.40
2019-05-17T08:05:37.274Z,40.40
2019-05-17T08:08:34.724Z,40.40
2019-05-17T08:11:31.995Z,40.50
2019-05-17T08:14:33.555Z,40.60
2019-05-17T08:17:34.262Z,40.80
2019-05-17T08:20:34.809Z,40.90
2019-05-17T08:23:33.235Z,41.00
2019-05-17T08:26:31.852Z,41.20
2019-05-17T08:29:29.767Z,41.30
2019-05-17T08:32:25.607Z,41.50
2019-05-17T08:35:23.659Z,41.50
2019-05-17T08:38:19.781Z,41.60
2019-05-17T08:41:15.112Z,41.90
2019-05-17T08:44:10.342Z,42.30
2019-05-17T08:47:05.975Z,42.60
2019-05-17T08:50:02.085Z,42.80
2019-05-17T08:53:07.690Z,43.00
2019-05-17T08:56:02.858Z,43.10
2019-05-17T08:59:00.533Z,43.10
2019-05-17T09:01:54.895Z,43.20
2019-05-17T09:04:50.861Z,43.20
2019-05-17T09:07:45.916Z,43.30
2019-05-17T09:10:42.079Z,43.40
2019-05-17T09:13:37.263Z,43.50
2019-05-17T09:16:33.352Z,43.70
2019-05-17T09:19:39.507Z,43.90
2019-05-17T09:22:35.208Z,44.00
2019-05-17T09:25:43.313Z,44.20
2019-05-17T09:36:10.747Z,44.10
2019-05-17T09:39:29.464Z,44.10
2019-05-17T09:46:26.859Z,44.20
2019-05-17T09:49:32.635Z,44.00
2019-05-17T09:52:41.483Z,43.90
2019-05-17T09:55:39.676Z,43.60
2019-05-17T09:58:35.523Z,43.50
2019-05-17T10:01:31.091Z,43.50
2019-05-17T10:04:31.487Z,43.40
2019-05-17T10:07:29.875Z,43.40
2019-05-17T10:10:29.504Z,43.40
2019-05-17T10:13:24.163Z,43.40
2019-05-17T10:16:20.304Z,43.40
2019-05-17T10:19:23.579Z,43.40
2019-05-17T10:22:59.573Z,43.30
2019-05-17T10:25:55.824Z,43.30
2019-05-17T10:29:02.517Z,43.30
2019-05-17T10:32:02.579Z,43.40
2019-05-17T10:35:00.293Z,43.40
2019-05-17T10:37:59.345Z,43.40
2019-05-17T10:40:51.765Z,43.40
2019-05-17T10:43:49.891Z,43.40
2019-05-17T10:46:52.805Z,43.40
2019-05-17T10:49:58.899Z,43.40
2019-05-17T10:52:56.009Z,43.40
2019-05-17T10:55:52.155Z,43.50
2019-05-17T10:58:49.345Z,43.50
2019-05-17T11:01:46.815Z,43.70
2019-05-17T11:04:44.185Z,43.70
2019-05-17T11:07:40.377Z,43.80
2019-05-17T11:10:54.902Z,43.90
2019-05-17T11:13:57.032Z,43.90
2019-05-17T11:16:55.776Z,44.00
2019-05-17T11:19:51.447Z,44.10
2019-05-17T11:22:50.355Z,44.20
2019-05-17T11:25:46.764Z,44.30
2019-05-17T11:29:09.827Z,44.40
2019-05-17T11:32:07.269Z,44.50
2019-05-17T11:35:02.699Z,44.70
2019-05-17T11:38:01.516Z,44.70
2019-05-17T11:40:57.023Z,44.80
2019-05-17T11:43:53.813Z,44.80
2019-05-17T11:46:54.257Z,44.80
2019-05-17T11:49:50.913Z,44.80
2019-05-17T11:52:48.011Z,44.70
2019-05-17T11:55:43.313Z,44.60
2019-05-17T11:58:39.271Z,44.40
2019-05-17T12:01:36.305Z,44.20
2019-05-17T12:04:33.124Z,44.10
2019-05-17T12:07:33.790Z,44.00
2019-05-17T12:10:31.310Z,43.80
2019-05-17T12:13:28.306Z,43.70
2019-05-17T12:16:24.912Z,43.50
2019-05-17T12:19:21.676Z,43.50
2019-05-17T12:22:19.138Z,43.50
2019-05-17T12:25:14.716Z,43.40
2019-05-17T12:28:09.756Z,43.40
2019-05-17T12:31:06.450Z,43.20
2019-05-17T12:34:03.169Z,43.10
2019-05-17T12:36:58.113Z,43.00
2019-05-17T12:40:05.265Z,42.80
2019-05-17T12:43:01.617Z,42.70
2019-05-17T12:46:01.009Z,42.50
2019-05-17T12:48:56.331Z,42.30
2019-05-17T12:51:51.195Z,42.20
2019-05-17T12:54:48.731Z,42.00
2019-05-17T12:57:45.107Z,41.80
2019-05-17T13:00:40.421Z,41.70
2019-05-17T13:03:36.042Z,41.50
2019-05-17T13:06:31.845Z,41.40
2019-05-17T13:09:27.813Z,41.30
2019-05-17T13:12:22.972Z,41.20
2019-05-17T13:15:19.328Z,41.00
2019-05-17T13:18:16.830Z,40.90
2019-05-17T13:21:13.128Z,40.80
2019-05-17T13:24:10.114Z,40.70
2019-05-17T13:27:09.213Z,40.60
2019-05-17T13:30:05.716Z,40.50
2019-05-17T13:33:03.187Z,40.40
2019-05-17T13:35:59.386Z,40.30
2019-05-17T13:38:54.835Z,40.20
2019-05-17T13:41:50.477Z,40.10
2019-05-17T13:44:46.177Z,40.00
2019-05-17T13:47:45.362Z,39.90
2019-05-17T13:50:41.608Z,39.90
2019-05-17T13:53:40.382Z,39.80
2019-05-17T13:56:36.793Z,39.70
2019-05-17T13:59:35.698Z,39.60
2019-05-17T14:02:33.124Z,39.50
2019-05-17T14:05:32.133Z,39.50
2019-05-17T14:08:29.837Z,39.40
2019-05-17T14:11:29.082Z,39.30
2019-05-17T14:14:27.236Z,39.30
2019-05-17T14:17:25.554Z,39.20
2019-05-17T14:20:24.219Z,39.20
2019-05-17T14:23:21.864Z,39.10
2019-05-17T14:26:20.193Z,39.10
2019-05-17T14:29:18.599Z,39.10
2019-05-17T14:32:14.689Z,39.00
2019-05-17T14:35:10.964Z,39.00
2019-05-17T14:38:06.498Z,38.90
2019-05-17T14:41:08.201Z,38.90
2019-05-17T14:43:59.505Z,38.80
2019-05-17T14:46:56.963Z,38.80
2019-05-17T14:49:53.841Z,38.80
2019-05-17T14:52:50.325Z,38.70
2019-05-17T14:55:48.868Z,38.70
2019-05-17T14:58:54.834Z,38.60
2019-05-17T15:01:51.114Z,38.60
2019-05-17T15:04:48.528Z,38.50
2019-05-17T15:07:45.209Z,38.50
2019-05-17T15:10:41.144Z,38.50
2019-05-17T15:13:37.028Z,38.40
2019-05-17T15:16:34.538Z,38.40
2019-05-17T15:19:31.626Z,38.40
2019-05-17T15:22:28.935Z,38.30
2019-05-17T15:25:28.099Z,38.30
2019-05-17T15:28:23.944Z,38.20
2019-05-17T15:31:19.398Z,38.20
2019-05-17T15:34:14.231Z,38.20
2019-05-17T15:37:16.587Z,38.20
2019-05-17T15:40:14.795Z,38.10
2019-05-17T15:43:11.483Z,38.10
2019-05-17T15:46:10.217Z,38.10
2019-05-17T15:49:06.953Z,38.00
2019-05-17T15:52:07.490Z,38.00
2019-05-17T15:55:05.001Z,38.00
2019-05-17T15:58:02.644Z,37.90
2019-05-17T16:01:00.452Z,37.90
2019-05-17T16:03:56.214Z,37.80
2019-05-17T16:06:53.600Z,37.80
2019-05-17T16:09:50.858Z,37.80
2019-05-17T16:13:01.527Z,37.80
2019-05-17T16:15:45.720Z,37.80
2019-05-17T16:18:41.766Z,37.70
2019-05-17T16:21:39.935Z,37.70
2019-05-17T16:24:35.140Z,37.60
2019-05-17T16:27:29.852Z,37.60
2019-05-17T16:30:24.634Z,37.60
2019-05-17T16:33:19.966Z,37.60
2019-05-17T16:36:14.733Z,37.50
2019-05-17T16:39:10.052Z,37.50
2019-05-17T16:42:06.722Z,37.40
2019-05-17T16:45:04.999Z,37.40
2019-05-17T16:48:03.707Z,37.40
2019-05-17T16:51:01.659Z,37.30
2019-05-17T16:53:59.990Z,37.30
2019-05-17T16:56:56.343Z,37.30
2019-05-17T16:59:51.793Z,37.20
2019-05-17T17:02:49.253Z,37.20
2019-05-17T17:05:46.172Z,37.20
2019-05-17T17:08:43.273Z,37.20
2019-05-17T17:11:39.837Z,37.20
2019-05-17T17:14:37.352Z,37.10
2019-05-17T17:17:34.536Z,37.10
2019-05-17T17:20:30.980Z,37.10
2019-05-17T17:23:26.677Z,37.10
2019-05-17T17:26:24.363Z,37.00
2019-05-17T17:29:21.836Z,37.00
2019-05-17T17:32:21.475Z,37.00
2019-05-17T17:35:17.151Z,37.00
2019-05-17T17:38:16.113Z,36.90
2019-05-17T17:41:14.608Z,36.90
2019-05-17T17:44:12.747Z,36.90
2019-05-17T17:47:08.899Z,36.90
2019-05-17T17:50:05.816Z,36.90
2019-05-17T17:53:03.864Z,36.80
2019-05-17T17:55:59.332Z,36.80
2019-05-17T17:58:55.089Z,36.80
2019-05-17T18:01:50.687Z,36.70
2019-05-17T18:04:46.678Z,36.80
2019-05-17T18:07:42.096Z,36.70
2019-05-17T18:10:39.467Z,36.70
2019-05-17T18:13:34.828Z,36.70
2019-05-17T18:16:30.981Z,36.70
2019-05-17T18:19:26.683Z,36.60
2019-05-17T18:22:23.176Z,36.60
2019-05-17T18:25:18.531Z,36.60
2019-05-17T18:28:14.027Z,36.60
2019-05-17T18:31:09.342Z,36.60
2019-05-17T18:34:04.889Z,36.60
2019-05-17T18:37:01.261Z,36.60
2019-05-17T18:39:56.888Z,36.60
2019-05-17T18:42:52.883Z,36.60
2019-05-17T18:45:48.296Z,36.60
2019-05-17T18:48:43.126Z,36.60
2019-05-17T18:51:39.251Z,36.60
2019-05-17T18:54:35.410Z,36.60
2019-05-17T18:57:30.578Z,36.60
2019-05-17T19:00:26.693Z,36.60
2019-05-17T19:03:21.916Z,36.50
2019-05-17T19:06:17.491Z,36.50
2019-05-17T19:09:13.906Z,36.50
2019-05-17T19:12:10.162Z,36.40
2019-05-17T19:15:05.707Z,36.40
2019-05-17T19:18:00.796Z,36.40
2019-05-17T19:20:56.256Z,36.40
2019-05-17T19:23:52.087Z,36.30
2019-05-17T19:26:47.818Z,36.30
2019-05-17T19:29:44.521Z,36.30
2019-05-17T19:32:40.559Z,36.20
2019-05-17T19:35:36.646Z,36.20
2019-05-17T19:38:32.709Z,36.20
2019-05-17T19:41:29.586Z,36.20
2019-05-17T19:44:25.987Z,36.20
2019-05-17T19:47:22.321Z,36.10
2019-05-17T19:50:18.053Z,36.10
2019-05-17T19:53:14.088Z,36.10
2019-05-17T19:56:09.494Z,36.00
2019-05-17T19:59:05.083Z,36.00
2019-05-17T20:02:01.389Z,36.00
2019-05-17T20:04:57.959Z,35.90
2019-05-17T20:07:54.769Z,35.90
2019-05-17T20:10:52.185Z,35.90
2019-05-17T20:13:49.008Z,35.90
2019-05-17T20:16:45.742Z,35.80
2019-05-17T20:19:42.741Z,35.80
2019-05-17T20:22:42.575Z,35.80
2019-05-17T20:25:38.621Z,35.70
2019-05-17T20:28:35.813Z,35.70
2019-05-17T20:31:31.849Z,35.70
2019-05-17T20:34:28.487Z,35.60
2019-05-17T20:37:24.398Z,35.60
2019-05-17T20:40:20.745Z,35.60
2019-05-17T20:43:16.321Z,35.60
2019-05-17T20:46:11.672Z,35.50
2019-05-17T20:49:06.401Z,35.50
2019-05-17T20:52:01.166Z,35.50
2019-05-17T20:54:56.192Z,35.40
2019-05-17T20:57:51.177Z,35.40
2019-05-17T21:00:45.856Z,35.40
2019-05-17T21:03:41.454Z,35.30
2019-05-17T21:06:37.867Z,35.30
2019-05-17T21:09:33.725Z,35.20
2019-05-17T21:12:28.883Z,35.20
2019-05-17T21:15:24.485Z,35.10
2019-05-17T21:18:20.793Z,35.10
2019-05-17T21:21:16.582Z,35.00
2019-05-17T21:24:11.927Z,34.90
2019-05-17T21:27:06.969Z,34.90
2019-05-17T21:30:02.949Z,34.90
2019-05-17T21:32:59.122Z,34.90
2019-05-17T21:35:55.532Z,34.90
2019-05-17T21:38:53.746Z,34.80
2019-05-17T21:41:51.709Z,34.80
2019-05-17T21:44:49.452Z,34.80
2019-05-17T21:47:47.558Z,34.80
2019-05-17T21:50:44.881Z,34.70
2019-05-17T21:53:42.427Z,34.70
2019-05-17T21:56:40.181Z,34.70
2019-05-17T21:59:37.892Z,34.70
2019-05-17T22:02:35.328Z,34.70
2019-05-17T22:05:32.364Z,34.70
2019-05-17T22:08:29.998Z,34.70
2019-05-17T22:11:26.258Z,34.60
2019-05-17T22:14:23.941Z,34.60
2019-05-17T22:17:22.085Z,34.60
2019-05-17T22:20:19.345Z,34.60
2019-05-17T22:23:14.894Z,34.50
2019-05-17T22:26:09.936Z,34.50
2019-05-17T22:29:07.003Z,34.50
2019-05-17T22:32:01.809Z,34.50
2019-05-17T22:34:59.117Z,34.50
2019-05-17T22:37:53.831Z,34.50
2019-05-17T22:40:48.787Z,34.40
2019-05-17T22:43:43.510Z,34.40
2019-05-17T22:46:38.316Z,34.40
2019-05-17T22:49:33.397Z,34.40
2019-05-17T22:52:28.225Z,34.40
2019-05-17T22:55:23.316Z,34.40
2019-05-17T22:58:17.911Z,34.40
2019-05-17T23:01:12.425Z,34.40
2019-05-17T23:04:06.894Z,34.30
2019-05-17T23:07:02.008Z,34.30
2019-05-17T23:09:57.471Z,34.30
2019-05-17T23:13:00.650Z,34.30
2019-05-17T23:16:06.309Z,34.30
2019-05-17T23:19:11.228Z,34.30
2019-05-17T23:22:06.215Z,34.20
2019-05-17T23:25:03.431Z,34.20
2019-05-17T23:27:58.864Z,34.20
2019-05-17T23:30:55.795Z,34.20
2019-05-17T23:33:51.038Z,34.10
2019-05-17T23:36:45.999Z,34.10
2019-05-17T23:39:41.002Z,34.10
2019-05-17T23:42:36.156Z,34.10
2019-05-17T23:45:31.204Z,34.10
2019-05-17T23:48:26.794Z,34.00
2019-05-17T23:51:22.741Z,34.00
2019-05-17T23:54:18.221Z,34.00
2019-05-17T23:57:13.066Z,33.90
